createdAt,value
2018-05-18T00:01:58.284Z,99.90
2018-05-18T00:04:25.856Z,99.90
2018-05-18T00:06:54.327Z,99.90
2018-05-18T00:09:21.871Z,99.90
2018-05-18T00:11:49.338Z,99.90
2018-05-18T00:14:16.796Z,99.90
2018-05-18T00:16:44.777Z,99.90
2018-05-18T00:19:13.049Z,99.90
2018-05-18T00:21:41.317Z,99.90
2018-05-18T00:24:09.185Z,99.90
2018-05-18T00:26:37.058Z,99.90
2018-05-18T00:29:05.284Z,99.90
2018-05-18T00:31:32.781Z,99.90
2018-05-18T00:34:00.254Z,99.90
2018-05-18T00:36:28.733Z,99.90
2018-05-18T00:38:57.305Z,99.90
2018-05-18T00:41:24.874Z,99.90
2018-05-18T00:43:53.123Z,99.90
2018-05-18T00:46:20.779Z,99.90
2018-05-18T00:48:48.256Z,99.90
2018-05-18T00:51:15.821Z,99.90
2018-05-18T00:53:43.680Z,99.90
2018-05-18T00:56:11.250Z,99.90
2018-05-18T00:58:39.520Z,99.90
2018-05-18T01:01:06.990Z,99.90
2018-05-18T01:03:35.249Z,99.90
2018-05-18T01:06:02.725Z,99.90
2018-05-18T01:08:31.293Z,99.90
2018-05-18T01:11:00.473Z,99.90
2018-05-18T01:13:27.940Z,99.90
2018-05-18T01:15:55.896Z,99.90
2018-05-18T01:18:24.089Z,99.90
2018-05-18T01:20:51.944Z,99.90
2018-05-18T01:23:19.507Z,99.90
2018-05-18T01:25:47.068Z,99.90
2018-05-18T01:28:14.964Z,99.90
2018-05-18T01:30:42.506Z,99.90
2018-05-18T01:33:10.981Z,99.90
2018-05-18T01:35:39.217Z,99.90
2018-05-18T01:38:06.757Z,99.90
2018-05-18T01:40:34.219Z,99.90
2018-05-18T01:43:01.714Z,99.90
2018-05-18T01:45:29.321Z,99.90
2018-05-18T01:47:56.808Z,99.90
2018-05-18T01:50:24.608Z,99.90
2018-05-18T01:52:52.173Z,99.90
2018-05-18T01:55:20.418Z,99.90
2018-05-18T01:57:48.005Z,99.90
2018-05-18T02:00:16.382Z,99.90
2018-05-18T02:02:44.657Z,99.90
2018-05-18T02:05:12.208Z,99.90
2018-05-18T02:07:39.921Z,99.90
2018-05-18T02:10:07.438Z,99.90
2018-05-18T02:12:35.688Z,99.90
2018-05-18T02:15:03.563Z,99.90
2018-05-18T02:17:31.033Z,99.90
2018-05-18T02:19:58.595Z,99.90
2018-05-18T02:22:26.868Z,99.90
2018-05-18T02:24:55.404Z,99.90
2018-05-18T02:27:23.060Z,99.90
2018-05-18T02:29:50.569Z,99.90
2018-05-18T02:32:18.124Z,99.90
2018-05-18T02:34:45.959Z,99.90
2018-05-18T02:37:13.444Z,99.90
2018-05-18T02:39:41.012Z,99.90
2018-05-18T02:42:09.534Z,99.90
2018-05-18T02:44:37.044Z,99.90
2018-05-18T02:47:04.609Z,99.90
2018-05-18T02:49:32.926Z,99.90
2018-05-18T02:52:00.649Z,99.90
2018-05-18T02:54:29.165Z,99.90
2018-05-18T02:56:56.681Z,99.90
2018-05-18T02:59:24.161Z,99.90
2018-05-18T03:01:52.449Z,99.90
2018-05-18T03:04:19.978Z,99.90
2018-05-18T03:06:47.556Z,99.90
2018-05-18T03:09:15.814Z,99.90
2018-05-18T03:11:44.092Z,99.90
2018-05-18T03:14:12.569Z,99.90
2018-05-18T03:16:40.041Z,99.90
2018-05-18T03:19:08.327Z,99.90
2018-05-18T03:21:35.841Z,99.90
2018-05-18T03:24:03.320Z,99.90
2018-05-18T03:26:30.796Z,99.90
2018-05-18T03:28:58.844Z,99.90
2018-05-18T03:31:26.397Z,99.90
2018-05-18T03:33:54.709Z,99.90
2018-05-18T03:36:22.243Z,99.90
2018-05-18T03:38:50.711Z,99.90
2018-05-18T03:41:18.273Z,99.90
2018-05-18T03:43:45.741Z,99.90
2018-05-18T03:46:14.720Z,99.90
2018-05-18T03:48:42.183Z,99.90
2018-05-18T03:51:09.735Z,99.90
2018-05-18T03:53:37.292Z,99.90
2018-05-18T03:56:04.756Z,99.90
2018-05-18T03:58:32.224Z,99.90
2018-05-18T04:01:00.748Z,99.90
2018-05-18T04:03:40.131Z,99.90
2018-05-18T04:06:19.669Z,99.90
2018-05-18T04:08:53.115Z,99.90
2018-05-18T04:11:20.955Z,99.90
2018-05-18T04:13:49.212Z,99.90
2018-05-18T04:16:16.777Z,99.90
2018-05-18T04:18:45.115Z,99.90
2018-05-18T04:21:12.588Z,99.90
2018-05-18T04:23:40.072Z,99.90
2018-05-18T04:26:08.401Z,99.90
2018-05-18T04:28:36.628Z,99.90
2018-05-18T04:31:04.900Z,99.90
2018-05-18T04:33:33.173Z,99.90
2018-05-18T04:36:01.437Z,99.90
2018-05-18T04:38:29.004Z,99.90
2018-05-18T04:40:57.267Z,99.90
2018-05-18T04:43:24.837Z,99.90
2018-05-18T04:45:53.197Z,99.90
2018-05-18T04:48:20.695Z,99.90
2018-05-18T04:50:48.229Z,99.90
2018-05-18T04:53:16.525Z,99.90
2018-05-18T04:55:44.785Z,99.90
2018-05-18T04:58:13.167Z,99.90
2018-05-18T05:00:41.433Z,99.90
2018-05-18T05:03:09.914Z,99.90
2018-05-18T05:05:38.184Z,99.90
2018-05-18T05:08:05.645Z,99.90
2018-05-18T05:10:33.168Z,99.90
2018-05-18T05:13:00.641Z,99.90
2018-05-18T05:15:28.113Z,99.90
2018-05-18T05:17:55.732Z,99.90
2018-05-18T05:20:23.201Z,99.90
2018-05-18T05:22:50.698Z,99.90
2018-05-18T05:25:19.091Z,99.90
2018-05-18T05:27:48.037Z,99.90
2018-05-18T05:30:15.505Z,99.90
2018-05-18T05:32:43.279Z,99.90
2018-05-18T05:35:10.845Z,99.90
2018-05-18T05:37:39.173Z,99.90
2018-05-18T05:40:06.680Z,99.90
2018-05-18T05:42:34.949Z,99.90
2018-05-18T05:45:03.231Z,99.90
2018-05-18T05:47:31.514Z,99.90
2018-05-18T05:49:58.990Z,99.90
2018-05-18T05:52:26.604Z,99.90
2018-05-18T05:54:54.123Z,99.90
2018-05-18T05:57:22.158Z,99.90
2018-05-18T05:59:50.413Z,99.90
2018-05-18T06:02:17.880Z,99.90
2018-05-18T06:04:45.643Z,99.90
2018-05-18T06:07:13.920Z,99.90
2018-05-18T06:09:41.393Z,99.90
2018-05-18T06:12:09.990Z,99.90
2018-05-18T06:14:38.241Z,99.90
2018-05-18T06:17:06.480Z,99.90
2018-05-18T06:19:34.339Z,99.90
2018-05-18T06:22:02.966Z,99.90
2018-05-18T06:24:31.213Z,99.90
2018-05-18T06:26:59.203Z,99.90
2018-05-18T06:29:26.679Z,99.90
2018-05-18T06:31:54.927Z,99.90
2018-05-18T06:34:22.452Z,99.90
2018-05-18T06:36:49.974Z,99.90
2018-05-18T06:39:18.532Z,99.90
2018-05-18T06:41:46.096Z,99.90
2018-05-18T06:44:13.666Z,99.90
2018-05-18T06:46:42.547Z,99.90
2018-05-18T06:49:10.826Z,99.90
2018-05-18T06:51:38.436Z,99.90
2018-05-18T06:54:06.735Z,99.90
2018-05-18T06:56:34.264Z,99.90
2018-05-18T06:59:01.777Z,99.90
2018-05-18T07:01:30.044Z,99.90
2018-05-18T07:03:57.952Z,99.90
2018-05-18T07:06:25.581Z,99.90
2018-05-18T07:08:53.821Z,99.90
2018-05-18T07:11:21.597Z,99.90
2018-05-18T07:13:49.096Z,99.90
2018-05-18T07:16:16.578Z,99.90
2018-05-18T07:18:44.204Z,99.90
2018-05-18T07:21:12.465Z,99.90
2018-05-18T07:23:41.045Z,99.90
2018-05-18T07:26:08.805Z,99.90
2018-05-18T07:28:36.296Z,99.90
2018-05-18T07:31:03.824Z,99.90
2018-05-18T07:33:31.392Z,99.90
2018-05-18T07:35:59.633Z,99.90
2018-05-18T07:38:27.109Z,99.90
2018-05-18T07:40:54.704Z,99.90
2018-05-18T07:43:22.235Z,99.90
2018-05-18T07:45:50.215Z,99.90
2018-05-18T07:48:18.463Z,99.90
2018-05-18T07:50:46.040Z,99.90
2018-05-18T07:53:14.621Z,99.90
2018-05-18T07:55:42.101Z,99.90
2018-05-18T07:58:10.336Z,99.90
2018-05-18T08:00:37.918Z,99.90
2018-05-18T08:03:06.297Z,99.90
2018-05-18T08:05:34.820Z,99.90
2018-05-18T08:08:02.289Z,99.90
2018-05-18T08:10:29.844Z,99.90
2018-05-18T08:12:57.387Z,99.90
2018-05-18T08:15:24.913Z,99.90
2018-05-18T08:17:53.264Z,99.90
2018-05-18T08:20:20.747Z,99.90
2018-05-18T08:22:49.216Z,99.90
2018-05-18T08:25:16.784Z,99.90
2018-05-18T08:27:45.416Z,99.90
2018-05-18T08:30:13.848Z,99.90
2018-05-18T08:32:42.120Z,99.90
2018-05-18T08:35:09.680Z,99.90
2018-05-18T08:37:38.049Z,99.90
2018-05-18T08:40:05.516Z,99.90
2018-05-18T08:42:33.794Z,99.90
2018-05-18T08:45:02.065Z,99.90
2018-05-18T08:47:29.692Z,99.90
2018-05-18T08:49:57.740Z,99.90
2018-05-18T08:52:25.260Z,99.90
2018-05-18T08:54:53.588Z,99.90
2018-05-18T08:57:21.093Z,99.90
2018-05-18T08:59:49.389Z,99.90
2018-05-18T09:02:16.865Z,99.90
2018-05-18T09:04:44.478Z,99.90
2018-05-18T09:07:12.961Z,99.90
2018-05-18T09:09:40.489Z,99.90
2018-05-18T09:12:08.221Z,99.90
2018-05-18T09:14:35.691Z,99.90
2018-05-18T09:17:03.260Z,99.90
2018-05-18T09:19:30.733Z,99.90
2018-05-18T09:21:58.210Z,99.90
2018-05-18T09:24:26.096Z,99.90
2018-05-18T09:26:54.388Z,99.90
2018-05-18T09:29:21.875Z,99.90
2018-05-18T09:31:49.388Z,99.90
2018-05-18T09:34:17.977Z,99.90
2018-05-18T09:36:46.242Z,99.90
2018-05-18T09:39:14.529Z,99.90
2018-05-18T09:41:42.008Z,99.90
2018-05-18T09:44:09.535Z,99.90
2018-05-18T09:46:38.105Z,99.90
2018-05-18T09:49:06.493Z,99.90
2018-05-18T09:51:34.761Z,99.90
2018-05-18T09:54:03.564Z,99.90
2018-05-18T09:56:32.031Z,99.90
2018-05-18T09:59:00.357Z,99.90
2018-05-18T10:01:27.896Z,99.90
2018-05-18T10:03:55.371Z,99.90
2018-05-18T10:06:22.897Z,99.90
2018-05-18T10:08:51.456Z,99.90
2018-05-18T10:11:19.161Z,99.90
2018-05-18T10:13:47.543Z,99.90
2018-05-18T10:16:15.479Z,99.90
2018-05-18T10:18:43.840Z,99.90
2018-05-18T10:21:11.308Z,99.90
2018-05-18T10:23:39.690Z,99.90
2018-05-18T10:26:07.960Z,99.90
2018-05-18T10:28:36.192Z,99.90
2018-05-18T10:31:04.105Z,99.90
2018-05-18T10:33:32.379Z,99.90
2018-05-18T10:36:00.748Z,99.90
2018-05-18T10:38:29.237Z,99.90
2018-05-18T10:40:57.612Z,99.90
2018-05-18T10:43:25.888Z,99.90
2018-05-18T10:45:53.647Z,99.90
2018-05-18T10:48:21.125Z,98.30
2018-05-18T10:50:49.381Z,99.90
2018-05-18T10:53:17.351Z,99.80
2018-05-18T10:55:45.675Z,97.50
2018-05-18T10:58:13.231Z,97.40
2018-05-18T11:00:40.868Z,96.90
2018-05-18T11:03:09.233Z,96.30
2018-05-18T11:05:37.813Z,95.90
2018-05-18T11:08:06.088Z,94.70
2018-05-18T11:10:34.339Z,93.80
2018-05-18T11:13:02.021Z,93.80
2018-05-18T11:15:30.728Z,95.00
2018-05-18T11:17:59.055Z,94.20
2018-05-18T11:20:27.305Z,92.90
2018-05-18T11:22:55.105Z,92.90
2018-05-18T11:25:22.805Z,93.50
2018-05-18T11:27:51.080Z,92.30
2018-05-18T11:30:19.442Z,90.90
2018-05-18T11:32:47.685Z,91.10
2018-05-18T11:35:15.186Z,90.60
2018-05-18T11:37:43.856Z,92.50
2018-05-18T11:40:11.625Z,92.50
2018-05-18T11:42:40.006Z,91.60
2018-05-18T11:45:08.785Z,91.70
2018-05-18T11:47:36.455Z,91.60
2018-05-18T11:50:04.932Z,90.80
2018-05-18T11:52:33.516Z,90.10
2018-05-18T11:55:01.797Z,93.40
2018-05-18T11:57:30.176Z,91.70
2018-05-18T11:59:58.440Z,90.20
2018-05-18T12:02:25.935Z,89.70
2018-05-18T12:04:53.772Z,87.70
2018-05-18T12:07:22.056Z,90.60
2018-05-18T12:09:50.521Z,89.00
2018-05-18T12:12:18.281Z,88.50
2018-05-18T12:14:45.757Z,87.80
2018-05-18T12:17:14.270Z,86.00
2018-05-18T12:19:41.780Z,85.60
2018-05-18T12:22:09.544Z,83.70
2018-05-18T12:24:37.364Z,84.10
2018-05-18T12:27:05.038Z,83.50
2018-05-18T12:29:32.632Z,81.80
2018-05-18T12:32:00.609Z,83.10
2018-05-18T12:34:28.872Z,81.50
2018-05-18T12:36:56.656Z,82.00
2018-05-18T12:39:24.893Z,81.60
2018-05-18T12:41:52.388Z,81.00
2018-05-18T12:44:21.099Z,81.00
2018-05-18T12:46:48.673Z,81.00
2018-05-18T12:49:16.171Z,81.70
2018-05-18T12:51:43.837Z,81.70
2018-05-18T12:54:12.237Z,79.60
2018-05-18T12:56:40.688Z,82.60
2018-05-18T12:59:08.360Z,82.50
2018-05-18T13:01:36.628Z,78.70
2018-05-18T13:04:04.504Z,77.80
2018-05-18T13:06:33.455Z,81.40
2018-05-18T13:09:00.941Z,81.10
2018-05-18T13:11:28.607Z,83.00
2018-05-18T13:13:56.116Z,84.00
2018-05-18T13:16:23.729Z,80.70
2018-05-18T13:18:51.296Z,84.80
2018-05-18T13:21:19.780Z,83.60
2018-05-18T13:23:48.085Z,85.30
2018-05-18T13:26:16.221Z,85.40
2018-05-18T13:28:44.598Z,86.10
2018-05-18T13:31:13.276Z,89.00
2018-05-18T13:33:40.946Z,87.80
2018-05-18T13:36:09.277Z,90.50
2018-05-18T13:38:37.095Z,90.30
2018-05-18T13:41:05.253Z,90.70
2018-05-18T13:43:32.916Z,90.70
2018-05-18T13:46:00.883Z,90.90
2018-05-18T13:48:29.467Z,91.10
2018-05-18T13:50:57.228Z,91.20
2018-05-18T13:53:24.996Z,94.00
2018-05-18T13:55:53.376Z,92.20
2018-05-18T13:58:22.057Z,94.00
2018-05-18T14:00:49.820Z,94.00
2018-05-18T14:03:18.056Z,93.60
2018-05-18T14:05:45.580Z,93.50
2018-05-18T14:08:13.138Z,95.90
2018-05-18T14:10:40.677Z,96.50
2018-05-18T14:13:09.256Z,98.80
2018-05-18T14:15:37.021Z,98.30
2018-05-18T14:18:04.598Z,98.10
2018-05-18T14:20:32.554Z,98.40
2018-05-18T14:23:00.828Z,99.00
2018-05-18T14:25:29.101Z,97.50
2018-05-18T14:27:57.745Z,97.80
2018-05-18T14:30:25.244Z,97.40
2018-05-18T14:32:52.801Z,97.80
2018-05-18T14:35:20.664Z,98.00
2018-05-18T14:37:48.491Z,99.00
2018-05-18T14:40:16.821Z,97.20
2018-05-18T14:42:45.285Z,98.20
2018-05-18T14:45:12.797Z,98.20
2018-05-18T14:47:40.325Z,98.40
2018-05-18T14:50:08.581Z,98.30
2018-05-18T14:52:36.247Z,98.10
2018-05-18T14:55:04.799Z,99.20
2018-05-18T14:57:32.519Z,99.20
2018-05-18T15:00:00.154Z,99.10
2018-05-18T15:02:28.505Z,96.40
2018-05-18T15:04:56.090Z,96.40
2018-05-18T15:07:24.369Z,98.60
2018-05-18T15:09:52.840Z,98.10
2018-05-18T15:12:20.604Z,98.00
2018-05-18T15:14:48.480Z,98.00
2018-05-18T15:17:16.720Z,96.30
2018-05-18T15:19:44.323Z,96.40
2018-05-18T15:22:12.829Z,96.20
2018-05-18T15:24:40.961Z,96.10
2018-05-18T15:27:08.721Z,97.20
2018-05-18T15:29:36.280Z,98.20
2018-05-18T15:32:04.760Z,98.90
2018-05-18T15:34:32.429Z,98.90
2018-05-18T15:37:00.094Z,97.10
2018-05-18T15:39:28.410Z,98.90
2018-05-18T15:41:56.336Z,98.80
2018-05-18T15:44:24.714Z,98.20
2018-05-18T15:46:53.425Z,98.80
2018-05-18T15:49:20.937Z,98.70
2018-05-18T15:51:48.385Z,96.90
2018-05-18T15:54:16.008Z,97.90
2018-05-18T15:56:43.589Z,98.20
2018-05-18T15:59:11.187Z,98.60
2018-05-18T16:01:39.260Z,99.60
2018-05-18T16:04:06.740Z,98.60
2018-05-18T16:06:34.250Z,98.30
2018-05-18T16:09:01.782Z,99.40
2018-05-18T16:11:29.252Z,97.90
2018-05-18T16:13:56.731Z,98.60
2018-05-18T16:16:24.780Z,99.00
2018-05-18T16:18:52.292Z,97.80
2018-05-18T16:21:20.549Z,99.70
2018-05-18T16:23:48.255Z,99.70
2018-05-18T16:26:15.734Z,99.80
2018-05-18T16:28:43.215Z,98.80
2018-05-18T16:31:10.945Z,98.20
2018-05-18T16:33:38.417Z,98.30
2018-05-18T16:36:05.908Z,97.30
2018-05-18T16:38:34.240Z,99.00
2018-05-18T16:41:01.746Z,99.20
2018-05-18T16:43:30.281Z,98.80
2018-05-18T16:45:58.086Z,98.80
2018-05-18T16:48:25.648Z,99.60
2018-05-18T16:50:53.965Z,99.80
2018-05-18T16:53:21.446Z,99.60
2018-05-18T16:55:49.759Z,99.90
2018-05-18T16:58:18.112Z,99.90
2018-05-18T17:00:45.591Z,99.90
2018-05-18T17:03:13.171Z,99.90
2018-05-18T17:05:41.641Z,99.90
2018-05-18T17:08:10.014Z,99.90
2018-05-18T17:10:38.254Z,99.90
2018-05-18T17:13:05.963Z,99.90
2018-05-18T17:15:34.240Z,99.90
2018-05-18T17:18:02.556Z,99.90
2018-05-18T17:20:30.061Z,99.90
2018-05-18T17:22:58.365Z,99.90
2018-05-18T17:25:25.891Z,99.90
2018-05-18T17:27:53.756Z,99.90
2018-05-18T17:30:21.354Z,99.90
2018-05-18T17:32:48.824Z,99.90
2018-05-18T17:35:16.310Z,99.90
2018-05-18T17:37:44.112Z,99.90
2018-05-18T17:40:12.407Z,99.90
2018-05-18T17:42:40.224Z,99.90
2018-05-18T17:45:07.708Z,99.90
2018-05-18T17:47:36.081Z,99.90
2018-05-18T17:50:04.401Z,99.90
2018-05-18T17:52:31.897Z,99.90
2018-05-18T17:55:00.180Z,99.90
2018-05-18T17:57:27.653Z,99.90
2018-05-18T17:59:55.888Z,99.90
2018-05-18T18:02:23.675Z,99.90
2018-05-18T18:04:51.203Z,99.90
2018-05-18T18:07:18.711Z,99.90
2018-05-18T18:09:47.216Z,99.90
2018-05-18T18:12:14.692Z,99.90
2018-05-18T18:14:42.169Z,99.90
2018-05-18T18:17:09.948Z,99.90
2018-05-18T18:19:37.460Z,99.90
2018-05-18T18:22:05.021Z,99.90
2018-05-18T18:24:32.491Z,99.90
2018-05-18T18:27:00.089Z,99.90
2018-05-18T18:29:28.002Z,99.90
2018-05-18T18:31:55.872Z,99.90
2018-05-18T18:34:23.453Z,99.90
2018-05-18T18:36:51.004Z,99.90
2018-05-18T18:39:18.580Z,99.90
2018-05-18T18:41:46.094Z,99.90
2018-05-18T18:44:14.031Z,99.90
2018-05-18T18:46:41.602Z,99.90
2018-05-18T18:49:09.872Z,99.90
2018-05-18T18:51:38.225Z,99.90
2018-05-18T18:54:05.704Z,99.90
2018-05-18T18:56:33.944Z,99.90
2018-05-18T18:59:01.506Z,99.90
2018-05-18T19:01:29.304Z,99.90
2018-05-18T19:03:56.864Z,99.90
2018-05-18T19:06:25.151Z,99.90
2018-05-18T19:08:53.474Z,99.90
2018-05-18T19:11:20.959Z,99.90
2018-05-18T19:13:48.517Z,99.90
2018-05-18T19:16:16.001Z,99.90
2018-05-18T19:18:44.254Z,99.90
2018-05-18T19:21:11.806Z,99.90
2018-05-18T19:23:39.284Z,99.90
2018-05-18T19:26:07.564Z,99.90
2018-05-18T19:28:36.136Z,99.90
2018-05-18T19:31:03.705Z,99.90
2018-05-18T19:33:32.462Z,99.90
2018-05-18T19:35:59.944Z,99.90
2018-05-18T19:38:28.647Z,99.90
2018-05-18T19:40:57.044Z,99.90
2018-05-18T19:43:24.573Z,99.90
2018-05-18T19:45:53.087Z,99.90
2018-05-18T19:48:20.860Z,99.90
2018-05-18T19:50:48.423Z,99.90
2018-05-18T19:53:16.092Z,99.90
2018-05-18T19:55:43.572Z,99.90
2018-05-18T19:58:11.048Z,99.90
2018-05-18T20:00:38.685Z,99.90
2018-05-18T20:03:06.164Z,99.90
2018-05-18T20:05:33.741Z,99.90
2018-05-18T20:08:02.318Z,99.90
2018-05-18T20:10:29.893Z,99.90
2018-05-18T20:12:58.138Z,99.90
2018-05-18T20:15:25.720Z,99.90
2018-05-18T20:17:53.193Z,99.90
2018-05-18T20:20:21.456Z,99.90
2018-05-18T20:22:49.424Z,99.90
2018-05-18T20:25:16.987Z,99.90
2018-05-18T20:27:44.553Z,99.90
2018-05-18T20:30:12.512Z,99.90
2018-05-18T20:32:40.071Z,99.90
2018-05-18T20:35:07.705Z,99.90
2018-05-18T20:37:35.204Z,99.90
2018-05-18T20:40:03.445Z,99.90
2018-05-18T20:42:31.141Z,99.90
2018-05-18T20:44:59.933Z,99.90
2018-05-18T20:47:27.384Z,99.90
2018-05-18T20:49:55.045Z,99.90
2018-05-18T20:52:22.809Z,99.90
2018-05-18T20:54:50.280Z,99.90
2018-05-18T20:57:19.280Z,99.90
2018-05-18T20:59:47.195Z,99.90
2018-05-18T21:02:15.642Z,99.90
2018-05-18T21:04:43.471Z,99.90
2018-05-18T21:07:11.085Z,99.90
2018-05-18T21:09:38.629Z,99.90
2018-05-18T21:12:06.152Z,99.90
2018-05-18T21:14:34.023Z,99.90
2018-05-18T21:17:02.612Z,99.90
2018-05-18T21:19:30.853Z,99.90
2018-05-18T21:21:59.609Z,99.90
2018-05-18T21:24:27.133Z,99.90
2018-05-18T21:26:55.432Z,99.90
2018-05-18T21:29:23.289Z,99.90
2018-05-18T21:31:51.554Z,99.90
2018-05-18T21:34:19.831Z,99.90
2018-05-18T21:36:48.310Z,99.90
2018-05-18T21:39:16.558Z,99.90
2018-05-18T21:41:44.164Z,99.90
2018-05-18T21:44:11.646Z,99.90
2018-05-18T21:46:39.362Z,99.90
2018-05-18T21:49:07.776Z,99.90
2018-05-18T21:51:35.296Z,99.90
2018-05-18T21:54:03.785Z,99.90
2018-05-18T21:56:32.021Z,99.90
2018-05-18T21:58:59.649Z,99.90
2018-05-18T22:01:27.172Z,99.90
2018-05-18T22:03:55.443Z,99.90
2018-05-18T22:06:23.880Z,99.90
2018-05-18T22:08:51.493Z,99.90
2018-05-18T22:11:20.055Z,99.90
2018-05-18T22:13:47.624Z,99.90
2018-05-18T22:16:15.215Z,99.90
2018-05-18T22:18:42.740Z,99.90
2018-05-18T22:21:10.308Z,99.90
2018-05-18T22:23:37.925Z,99.90
2018-05-18T22:26:05.420Z,99.90
2018-05-18T22:28:33.492Z,99.90
2018-05-18T22:31:01.724Z,99.90
2018-05-18T22:33:29.193Z,99.90
2018-05-18T22:35:56.783Z,99.90
2018-05-18T22:38:24.340Z,99.90
2018-05-18T22:40:51.918Z,99.90
2018-05-18T22:43:19.870Z,99.90
2018-05-18T22:45:47.433Z,99.90
2018-05-18T22:48:15.665Z,99.90
2018-05-18T22:50:43.709Z,99.90
2018-05-18T22:53:11.233Z,99.90
2018-05-18T22:55:38.706Z,99.90
2018-05-18T22:58:07.101Z,99.90
2018-05-18T23:00:36.228Z,99.90
2018-05-18T23:03:03.859Z,99.90
2018-05-18T23:05:31.339Z,99.90
2018-05-18T23:07:58.804Z,99.90
2018-05-18T23:10:26.378Z,99.90
2018-05-18T23:12:53.862Z,99.90
2018-05-18T23:15:22.127Z,99.90
2018-05-18T23:17:50.415Z,99.90
2018-05-18T23:20:19.613Z,99.90
2018-05-18T23:22:47.871Z,99.90
2018-05-18T23:25:15.593Z,99.90
2018-05-18T23:27:43.301Z,99.90
2018-05-18T23:30:11.072Z,99.90
2018-05-18T23:32:39.347Z,99.90
2018-05-18T23:35:07.591Z,99.90
2018-05-18T23:37:35.188Z,99.90
2018-05-18T23:40:03.563Z,99.90
2018-05-18T23:42:32.145Z,99.90
2018-05-18T23:45:00.380Z,99.90
2018-05-18T23:47:27.861Z,99.90
2018-05-18T23:49:56.056Z,99.90
2018-05-18T23:52:25.143Z,99.90
2018-05-18T23:54:53.622Z,99.90
2018-05-18T23:57:21.897Z,99.90
2018-05-18T23:59:50.173Z,99.90
